sensor_id;sensor_type;location;lat;lon;timestamp;P1;durP1;ratioP1;P2;durP2;ratioP2
29196;SDS011;62796;42.654;23.316;2023-03-01T00:00:10;7.70;;;5.30;;
29196;SDS011;62796;42.654;23.316;2023-03-01T00:02:36;6.57;;;4.70;;
29196;SDS011;62796;42.654;23.316;2023-03-01T00:05:02;8.05;;;5.13;;
29196;SDS011;62796;42.654;23.316;2023-03-01T00:07:28;6.63;;;4.78;;
29196;SDS011;62796;42.654;23.316;2023-03-01T00:09:53;5.45;;;4.43;;
29196;SDS011;62796;42.654;23.316;2023-03-01T00:12:19;6.88;;;5.18;;
29196;SDS011;62796;42.654;23.316;2023-03-01T00:14:44;5.93;;;4.68;;
29196;SDS011;62796;42.654;23.316;2023-03-01T00:17:10;7.13;;;5.07;;
29196;SDS011;62796;42.654;23.316;2023-03-01T00:19:35;6.40;;;5.22;;
29196;SDS011;62796;42.654;23.316;2023-03-01T00:22:01;5.57;;;4.35;;
29196;SDS011;62796;42.654;23.316;2023-03-01T00:24:26;5.50;;;4.05;;
29196;SDS011;62796;42.654;23.316;2023-03-01T00:26:52;5.82;;;4.50;;
29196;SDS011;62796;42.654;23.316;2023-03-01T00:29:20;4.85;;;3.92;;
29196;SDS011;62796;42.654;23.316;2023-03-01T00:31:47;5.20;;;4.28;;
29196;SDS011;62796;42.654;23.316;2023-03-01T00:34:12;7.65;;;4.22;;
29196;SDS011;62796;42.654;23.316;2023-03-01T00:36:38;4.93;;;3.92;;
29196;SDS011;62796;42.654;23.316;2023-03-01T00:39:04;5.70;;;4.35;;
29196;SDS011;62796;42.654;23.316;2023-03-01T00:41:33;4.93;;;4.10;;
29196;SDS011;62796;42.654;23.316;2023-03-01T00:43:59;5.53;;;4.30;;
29196;SDS011;62796;42.654;23.316;2023-03-01T00:46:25;6.97;;;4.32;;
29196;SDS011;62796;42.654;23.316;2023-03-01T00:48:52;5.30;;;4.03;;
29196;SDS011;62796;42.654;23.316;2023-03-01T00:51:19;5.00;;;4.00;;
29196;SDS011;62796;42.654;23.316;2023-03-01T00:53:47;5.68;;;4.68;;
29196;SDS011;62796;42.654;23.316;2023-03-01T00:56:16;5.60;;;4.20;;
29196;SDS011;62796;42.654;23.316;2023-03-01T00:58:41;5.18;;;4.25;;
29196;SDS011;62796;42.654;23.316;2023-03-01T01:01:08;6.60;;;3.90;;
29196;SDS011;62796;42.654;23.316;2023-03-01T01:03:49;4.40;;;3.75;;
29196;SDS011;62796;42.654;23.316;2023-03-01T01:06:18;6.95;;;4.80;;
29196;SDS011;62796;42.654;23.316;2023-03-01T01:08:49;6.13;;;4.10;;
29196;SDS011;62796;42.654;23.316;2023-03-01T01:11:15;4.50;;;3.80;;
29196;SDS011;62796;42.654;23.316;2023-03-01T01:13:43;4.15;;;3.25;;
29196;SDS011;62796;42.654;23.316;2023-03-01T01:16:09;3.45;;;3.00;;
29196;SDS011;62796;42.654;23.316;2023-03-01T01:18:35;3.30;;;3.00;;
29196;SDS011;62796;42.654;23.316;2023-03-01T01:21:07;2.67;;;2.42;;
29196;SDS011;62796;42.654;23.316;2023-03-01T01:23:36;3.15;;;2.60;;
29196;SDS011;62796;42.654;23.316;2023-03-01T01:26:05;3.22;;;2.70;;
29196;SDS011;62796;42.654;23.316;2023-03-01T01:28:38;3.03;;;2.63;;
29196;SDS011;62796;42.654;23.316;2023-03-01T01:31:04;3.13;;;2.65;;
29196;SDS011;62796;42.654;23.316;2023-03-01T01:33:30;4.75;;;2.97;;
29196;SDS011;62796;42.654;23.316;2023-03-01T01:35:56;3.00;;;2.70;;
29196;SDS011;62796;42.654;23.316;2023-03-01T01:38:21;3.10;;;2.60;;
29196;SDS011;62796;42.654;23.316;2023-03-01T01:40:48;3.25;;;2.63;;
29196;SDS011;62796;42.654;23.316;2023-03-01T01:43:24;3.25;;;2.75;;
29196;SDS011;62796;42.654;23.316;2023-03-01T01:45:55;2.83;;;2.30;;
29196;SDS011;62796;42.654;23.316;2023-03-01T01:48:24;2.65;;;2.45;;
29196;SDS011;62796;42.654;23.316;2023-03-01T01:51:05;3.22;;;2.55;;
29196;SDS011;62796;42.654;23.316;2023-03-01T01:53:34;2.28;;;2.08;;
29196;SDS011;62796;42.654;23.316;2023-03-01T01:56:01;2.40;;;2.20;;
29196;SDS011;62796;42.654;23.316;2023-03-01T01:58:30;2.28;;;2.08;;
29196;SDS011;62796;42.654;23.316;2023-03-01T02:00:55;2.45;;;2.20;;
29196;SDS011;62796;42.654;23.316;2023-03-01T02:03:25;2.33;;;2.13;;
29196;SDS011;62796;42.654;23.316;2023-03-01T02:06:05;2.53;;;2.33;;
29196;SDS011;62796;42.654;23.316;2023-03-01T02:08:37;2.15;;;1.95;;
29196;SDS011;62796;42.654;23.316;2023-03-01T02:11:06;2.47;;;2.20;;
29196;SDS011;62796;42.654;23.316;2023-03-01T02:13:33;2.45;;;2.25;;
29196;SDS011;62796;42.654;23.316;2023-03-01T02:16:02;2.08;;;1.92;;
29196;SDS011;62796;42.654;23.316;2023-03-01T02:18:29;2.03;;;1.90;;
29196;SDS011;62796;42.654;23.316;2023-03-01T02:21:06;2.47;;;2.28;;
29196;SDS011;62796;42.654;23.316;2023-03-01T02:23:38;2.30;;;2.10;;
29196;SDS011;62796;42.654;23.316;2023-03-01T02:28:32;2.42;;;2.22;;
29196;SDS011;62796;42.654;23.316;2023-03-01T02:31:00;5.32;;;2.70;;
29196;SDS011;62796;42.654;23.316;2023-03-01T02:36:12;2.50;;;2.30;;
29196;SDS011;62796;42.654;23.316;2023-03-01T02:38:42;2.65;;;2.45;;
29196;SDS011;62796;42.654;23.316;2023-03-01T02:41:07;2.15;;;2.00;;
29196;SDS011;62796;42.654;23.316;2023-03-01T02:43:35;2.83;;;2.55;;
29196;SDS011;62796;42.654;23.316;2023-03-01T02:46:03;2.63;;;2.42;;
29196;SDS011;62796;42.654;23.316;2023-03-01T02:48:42;3.00;;;2.70;;
29196;SDS011;62796;42.654;23.316;2023-03-01T02:51:22;3.58;;;2.47;;
29196;SDS011;62796;42.654;23.316;2023-03-01T02:56:47;2.88;;;2.60;;
29196;SDS011;62796;42.654;23.316;2023-03-01T02:59:14;4.03;;;3.30;;
29196;SDS011;62796;42.654;23.316;2023-03-01T03:01:43;3.78;;;3.38;;
29196;SDS011;62796;42.654;23.316;2023-03-01T03:04:10;5.15;;;3.72;;
29196;SDS011;62796;42.654;23.316;2023-03-01T03:06:42;3.57;;;3.10;;
29196;SDS011;62796;42.654;23.316;2023-03-01T03:09:08;4.70;;;4.03;;
29196;SDS011;62796;42.654;23.316;2023-03-01T03:11:33;5.53;;;3.78;;
29196;SDS011;62796;42.654;23.316;2023-03-01T03:13:59;5.55;;;4.30;;
29196;SDS011;62796;42.654;23.316;2023-03-01T03:16:24;5.07;;;4.57;;
29196;SDS011;62796;42.654;23.316;2023-03-01T03:18:50;5.22;;;4.38;;
29196;SDS011;62796;42.654;23.316;2023-03-01T03:21:16;5.35;;;4.40;;
29196;SDS011;62796;42.654;23.316;2023-03-01T03:23:42;5.32;;;4.80;;
29196;SDS011;62796;42.654;23.316;2023-03-01T03:26:07;6.30;;;4.78;;
29196;SDS011;62796;42.654;23.316;2023-03-01T03:28:34;7.00;;;5.85;;
29196;SDS011;62796;42.654;23.316;2023-03-01T03:31:00;6.22;;;4.97;;
29196;SDS011;62796;42.654;23.316;2023-03-01T03:33:29;7.20;;;5.70;;
29196;SDS011;62796;42.654;23.316;2023-03-01T03:35:55;6.22;;;5.40;;
29196;SDS011;62796;42.654;23.316;2023-03-01T03:38:20;7.10;;;5.40;;
29196;SDS011;62796;42.654;23.316;2023-03-01T03:40:52;6.20;;;5.13;;
29196;SDS011;62796;42.654;23.316;2023-03-01T03:43:28;6.63;;;5.30;;
29196;SDS011;62796;42.654;23.316;2023-03-01T03:45:55;7.15;;;5.43;;
29196;SDS011;62796;42.654;23.316;2023-03-01T03:48:22;6.43;;;5.30;;
29196;SDS011;62796;42.654;23.316;2023-03-01T03:50:49;7.65;;;5.97;;
29196;SDS011;62796;42.654;23.316;2023-03-01T03:53:16;7.22;;;5.55;;
29196;SDS011;62796;42.654;23.316;2023-03-01T03:55:41;6.25;;;5.15;;
29196;SDS011;62796;42.654;23.316;2023-03-01T03:58:07;6.47;;;5.03;;
29196;SDS011;62796;42.654;23.316;2023-03-01T04:00:38;7.38;;;5.53;;
29196;SDS011;62796;42.654;23.316;2023-03-01T04:03:08;6.10;;;4.47;;
29196;SDS011;62796;42.654;23.316;2023-03-01T04:05:35;5.47;;;4.35;;
29196;SDS011;62796;42.654;23.316;2023-03-01T04:08:01;5.70;;;4.22;;
29196;SDS011;62796;42.654;23.316;2023-03-01T04:10:27;6.03;;;4.40;;
29196;SDS011;62796;42.654;23.316;2023-03-01T04:12:54;5.15;;;4.20;;
29196;SDS011;62796;42.654;23.316;2023-03-01T04:15:23;5.32;;;3.90;;
29196;SDS011;62796;42.654;23.316;2023-03-01T04:17:50;6.15;;;4.28;;
29196;SDS011;62796;42.654;23.316;2023-03-01T04:20:22;4.20;;;3.42;;
29196;SDS011;62796;42.654;23.316;2023-03-01T04:22:57;4.80;;;3.63;;
29196;SDS011;62796;42.654;23.316;2023-03-01T04:25:29;4.90;;;3.92;;
29196;SDS011;62796;42.654;23.316;2023-03-01T04:27:55;6.40;;;4.07;;
29196;SDS011;62796;42.654;23.316;2023-03-01T04:30:20;5.82;;;3.78;;
29196;SDS011;62796;42.654;23.316;2023-03-01T04:32:50;5.35;;;4.18;;
29196;SDS011;62796;42.654;23.316;2023-03-01T04:35:15;5.25;;;4.03;;
29196;SDS011;62796;42.654;23.316;2023-03-01T04:37:41;4.55;;;3.65;;
29196;SDS011;62796;42.654;23.316;2023-03-01T04:40:06;5.72;;;4.35;;
29196;SDS011;62796;42.654;23.316;2023-03-01T04:42:38;5.57;;;3.75;;
29196;SDS011;62796;42.654;23.316;2023-03-01T04:45:04;6.68;;;4.13;;
29196;SDS011;62796;42.654;23.316;2023-03-01T04:47:38;5.97;;;4.38;;
29196;SDS011;62796;42.654;23.316;2023-03-01T04:50:04;5.47;;;3.95;;
29196;SDS011;62796;42.654;23.316;2023-03-01T04:52:30;6.78;;;4.50;;
29196;SDS011;62796;42.654;23.316;2023-03-01T04:54:56;5.18;;;4.43;;
29196;SDS011;62796;42.654;23.316;2023-03-01T04:57:22;6.32;;;4.65;;
29196;SDS011;62796;42.654;23.316;2023-03-01T04:59:47;5.60;;;4.05;;
29196;SDS011;62796;42.654;23.316;2023-03-01T05:02:12;5.25;;;3.95;;
29196;SDS011;62796;42.654;23.316;2023-03-01T05:04:38;6.45;;;3.85;;
29196;SDS011;62796;42.654;23.316;2023-03-01T05:07:03;5.10;;;3.95;;
29196;SDS011;62796;42.654;23.316;2023-03-01T05:09:29;5.22;;;3.85;;
29196;SDS011;62796;42.654;23.316;2023-03-01T05:11:54;5.15;;;3.60;;
29196;SDS011;62796;42.654;23.316;2023-03-01T05:14:19;5.78;;;4.20;;
29196;SDS011;62796;42.654;23.316;2023-03-01T05:16:45;6.45;;;4.57;;
29196;SDS011;62796;42.654;23.316;2023-03-01T05:19:10;5.80;;;4.38;;
29196;SDS011;62796;42.654;23.316;2023-03-01T05:21:41;7.07;;;4.93;;
29196;SDS011;62796;42.654;23.316;2023-03-01T05:24:26;6.07;;;4.60;;
29196;SDS011;62796;42.654;23.316;2023-03-01T05:26:52;8.15;;;5.05;;
29196;SDS011;62796;42.654;23.316;2023-03-01T05:29:18;7.80;;;4.90;;
29196;SDS011;62796;42.654;23.316;2023-03-01T05:31:57;5.70;;;4.28;;
29196;SDS011;62796;42.654;23.316;2023-03-01T05:34:28;5.57;;;3.88;;
29196;SDS011;62796;42.654;23.316;2023-03-01T05:36:55;4.88;;;3.50;;
29196;SDS011;62796;42.654;23.316;2023-03-01T05:39:21;5.57;;;3.65;;
29196;SDS011;62796;42.654;23.316;2023-03-01T05:41:51;3.25;;;2.95;;
29196;SDS011;62796;42.654;23.316;2023-03-01T05:44:17;3.60;;;3.05;;
29196;SDS011;62796;42.654;23.316;2023-03-01T05:46:43;3.75;;;3.10;;
29196;SDS011;62796;42.654;23.316;2023-03-01T05:49:09;3.35;;;2.85;;
29196;SDS011;62796;42.654;23.316;2023-03-01T05:51:35;4.43;;;3.58;;
29196;SDS011;62796;42.654;23.316;2023-03-01T05:54:01;5.30;;;3.28;;
29196;SDS011;62796;42.654;23.316;2023-03-01T05:56:26;3.42;;;3.13;;
29196;SDS011;62796;42.654;23.316;2023-03-01T05:58:51;4.15;;;3.35;;
29196;SDS011;62796;42.654;23.316;2023-03-01T06:01:17;4.05;;;3.08;;
29196;SDS011;62796;42.654;23.316;2023-03-01T06:03:42;3.60;;;2.88;;
29196;SDS011;62796;42.654;23.316;2023-03-01T06:06:07;3.53;;;3.08;;
29196;SDS011;62796;42.654;23.316;2023-03-01T06:08:33;3.65;;;3.33;;
29196;SDS011;62796;42.654;23.316;2023-03-01T06:10:58;4.55;;;3.50;;
29196;SDS011;62796;42.654;23.316;2023-03-01T06:13:24;4.30;;;3.40;;
29196;SDS011;62796;42.654;23.316;2023-03-01T06:15:49;5.53;;;3.40;;
29196;SDS011;62796;42.654;23.316;2023-03-01T06:18:15;4.72;;;4.00;;
29196;SDS011;62796;42.654;23.316;2023-03-01T06:20:40;5.50;;;4.15;;
29196;SDS011;62796;42.654;23.316;2023-03-01T06:23:06;5.93;;;4.10;;
29196;SDS011;62796;42.654;23.316;2023-03-01T06:25:31;4.95;;;3.50;;
29196;SDS011;62796;42.654;23.316;2023-03-01T06:27:57;5.22;;;3.35;;
29196;SDS011;62796;42.654;23.316;2023-03-01T06:30:23;4.63;;;2.85;;
29196;SDS011;62796;42.654;23.316;2023-03-01T06:32:50;3.58;;;3.05;;
29196;SDS011;62796;42.654;23.316;2023-03-01T06:35:17;4.18;;;2.97;;
29196;SDS011;62796;42.654;23.316;2023-03-01T06:37:43;5.38;;;3.38;;
29196;SDS011;62796;42.654;23.316;2023-03-01T06:40:10;4.82;;;3.25;;
29196;SDS011;62796;42.654;23.316;2023-03-01T06:42:37;5.97;;;3.50;;
29196;SDS011;62796;42.654;23.316;2023-03-01T06:45:04;7.55;;;3.30;;
29196;SDS011;62796;42.654;23.316;2023-03-01T06:47:31;5.07;;;3.20;;
29196;SDS011;62796;42.654;23.316;2023-03-01T06:49:58;4.00;;;3.20;;
29196;SDS011;62796;42.654;23.316;2023-03-01T06:52:24;4.18;;;3.40;;
29196;SDS011;62796;42.654;23.316;2023-03-01T06:54:50;5.18;;;3.47;;
29196;SDS011;62796;42.654;23.316;2023-03-01T06:57:15;6.07;;;3.38;;
29196;SDS011;62796;42.654;23.316;2023-03-01T06:59:41;5.95;;;3.38;;
29196;SDS011;62796;42.654;23.316;2023-03-01T07:02:06;7.28;;;3.38;;
29196;SDS011;62796;42.654;23.316;2023-03-01T07:04:37;4.50;;;3.45;;
29196;SDS011;62796;42.654;23.316;2023-03-01T07:07:03;3.88;;;3.05;;
29196;SDS011;62796;42.654;23.316;2023-03-01T07:09:29;5.57;;;3.15;;
29196;SDS011;62796;42.654;23.316;2023-03-01T07:11:54;8.43;;;3.03;;
29196;SDS011;62796;42.654;23.316;2023-03-01T07:14:20;6.07;;;3.40;;
29196;SDS011;62796;42.654;23.316;2023-03-01T07:16:46;5.07;;;3.58;;
29196;SDS011;62796;42.654;23.316;2023-03-01T07:19:12;5.30;;;3.72;;
29196;SDS011;62796;42.654;23.316;2023-03-01T07:21:37;6.57;;;3.55;;
29196;SDS011;62796;42.654;23.316;2023-03-01T07:24:05;8.65;;;4.00;;
29196;SDS011;62796;42.654;23.316;2023-03-01T07:26:31;9.20;;;3.40;;
29196;SDS011;62796;42.654;23.316;2023-03-01T07:28:58;4.97;;;3.17;;
29196;SDS011;62796;42.654;23.316;2023-03-01T07:31:24;6.30;;;2.92;;
29196;SDS011;62796;42.654;23.316;2023-03-01T07:33:52;3.35;;;3.03;;
29196;SDS011;62796;42.654;23.316;2023-03-01T07:36:18;5.90;;;2.78;;
29196;SDS011;62796;42.654;23.316;2023-03-01T07:38:43;4.97;;;3.38;;
29196;SDS011;62796;42.654;23.316;2023-03-01T07:41:09;8.05;;;3.60;;
29196;SDS011;62796;42.654;23.316;2023-03-01T07:43:34;7.40;;;3.40;;
29196;SDS011;62796;42.654;23.316;2023-03-01T07:46:00;3.83;;;3.30;;
29196;SDS011;62796;42.654;23.316;2023-03-01T07:48:26;5.55;;;3.42;;
29196;SDS011;62796;42.654;23.316;2023-03-01T07:50:52;8.18;;;4.20;;
29196;SDS011;62796;42.654;23.316;2023-03-01T07:53:18;7.50;;;2.97;;
29196;SDS011;62796;42.654;23.316;2023-03-01T07:55:43;4.25;;;2.72;;
29196;SDS011;62796;42.654;23.316;2023-03-01T07:58:08;5.05;;;2.90;;
29196;SDS011;62796;42.654;23.316;2023-03-01T08:00:34;3.38;;;2.60;;
29196;SDS011;62796;42.654;23.316;2023-03-01T08:03:00;3.45;;;2.80;;
29196;SDS011;62796;42.654;23.316;2023-03-01T08:05:26;7.43;;;3.28;;
29196;SDS011;62796;42.654;23.316;2023-03-01T08:07:52;4.43;;;2.90;;
29196;SDS011;62796;42.654;23.316;2023-03-01T08:10:18;3.78;;;2.70;;
29196;SDS011;62796;42.654;23.316;2023-03-01T08:12:43;4.22;;;2.72;;
29196;SDS011;62796;42.654;23.316;2023-03-01T08:15:09;2.78;;;2.20;;
29196;SDS011;62796;42.654;23.316;2023-03-01T08:17:35;3.40;;;2.58;;
29196;SDS011;62796;42.654;23.316;2023-03-01T08:20:00;3.72;;;2.75;;
29196;SDS011;62796;42.654;23.316;2023-03-01T08:22:26;4.38;;;3.40;;
29196;SDS011;62796;42.654;23.316;2023-03-01T08:24:51;6.65;;;3.70;;
29196;SDS011;62796;42.654;23.316;2023-03-01T08:27:16;5.10;;;4.60;;
29196;SDS011;62796;42.654;23.316;2023-03-01T08:29:42;4.28;;;3.30;;
29196;SDS011;62796;42.654;23.316;2023-03-01T08:32:08;3.83;;;3.45;;
29196;SDS011;62796;42.654;23.316;2023-03-01T08:34:33;4.03;;;3.00;;
29196;SDS011;62796;42.654;23.316;2023-03-01T08:37:00;5.00;;;4.50;;
29196;SDS011;62796;42.654;23.316;2023-03-01T08:39:26;4.90;;;4.40;;
29196;SDS011;62796;42.654;23.316;2023-03-01T08:41:52;4.72;;;3.80;;
29196;SDS011;62796;42.654;23.316;2023-03-01T08:44:18;4.57;;;3.45;;
29196;SDS011;62796;42.654;23.316;2023-03-01T08:46:44;6.35;;;2.90;;
29196;SDS011;62796;42.654;23.316;2023-03-01T08:49:14;3.90;;;3.33;;
29196;SDS011;62796;42.654;23.316;2023-03-01T08:51:42;6.03;;;4.15;;
29196;SDS011;62796;42.654;23.316;2023-03-01T08:54:12;3.55;;;2.90;;
29196;SDS011;62796;42.654;23.316;2023-03-01T08:56:40;3.05;;;2.60;;
29196;SDS011;62796;42.654;23.316;2023-03-01T08:59:06;4.78;;;4.22;;
29196;SDS011;62796;42.654;23.316;2023-03-01T09:01:32;8.40;;;4.30;;
29196;SDS011;62796;42.654;23.316;2023-03-01T09:03:57;4.53;;;3.38;;
29196;SDS011;62796;42.654;23.316;2023-03-01T09:06:23;3.20;;;2.90;;
29196;SDS011;62796;42.654;23.316;2023-03-01T09:08:49;4.55;;;3.92;;
29196;SDS011;62796;42.654;23.316;2023-03-01T09:11:16;4.40;;;3.70;;
29196;SDS011;62796;42.654;23.316;2023-03-01T09:13:44;6.88;;;4.10;;
29196;SDS011;62796;42.654;23.316;2023-03-01T09:16:11;6.35;;;4.30;;
29196;SDS011;62796;42.654;23.316;2023-03-01T09:18:38;4.82;;;3.80;;
29196;SDS011;62796;42.654;23.316;2023-03-01T09:21:05;5.68;;;4.05;;
29196;SDS011;62796;42.654;23.316;2023-03-01T09:23:39;4.70;;;3.35;;
29196;SDS011;62796;42.654;23.316;2023-03-01T09:26:07;5.53;;;3.67;;
29196;SDS011;62796;42.654;23.316;2023-03-01T09:28:34;3.92;;;3.20;;
29196;SDS011;62796;42.654;23.316;2023-03-01T09:31:01;5.20;;;3.50;;
29196;SDS011;62796;42.654;23.316;2023-03-01T09:33:27;3.22;;;2.85;;
29196;SDS011;62796;42.654;23.316;2023-03-01T09:35:57;4.63;;;3.25;;
29196;SDS011;62796;42.654;23.316;2023-03-01T09:38:23;3.45;;;2.95;;
29196;SDS011;62796;42.654;23.316;2023-03-01T09:40:48;5.47;;;3.15;;
29196;SDS011;62796;42.654;23.316;2023-03-01T09:45:49;3.90;;;2.90;;
29196;SDS011;62796;42.654;23.316;2023-03-01T09:48:20;3.50;;;2.92;;
29196;SDS011;62796;42.654;23.316;2023-03-01T09:50:49;5.50;;;2.40;;
29196;SDS011;62796;42.654;23.316;2023-03-01T09:53:17;4.13;;;3.03;;
29196;SDS011;62796;42.654;23.316;2023-03-01T09:55:53;5.85;;;3.85;;
29196;SDS011;62796;42.654;23.316;2023-03-01T10:01:30;4.70;;;3.15;;
29196;SDS011;62796;42.654;23.316;2023-03-01T10:04:05;4.78;;;2.85;;
29196;SDS011;62796;42.654;23.316;2023-03-01T10:07:02;3.22;;;2.90;;
29196;SDS011;62796;42.654;23.316;2023-03-01T10:09:45;3.60;;;2.33;;
29196;SDS011;62796;42.654;23.316;2023-03-01T10:12:14;5.70;;;2.53;;
29196;SDS011;62796;42.654;23.316;2023-03-01T10:22:39;4.38;;;2.92;;
29196;SDS011;62796;42.654;23.316;2023-03-01T10:25:05;4.10;;;3.17;;
29196;SDS011;62796;42.654;23.316;2023-03-01T10:27:34;4.57;;;2.33;;
29196;SDS011;62796;42.654;23.316;2023-03-01T10:30:19;4.32;;;3.17;;
29196;SDS011;62796;42.654;23.316;2023-03-01T10:33:26;5.50;;;3.40;;
29196;SDS011;62796;42.654;23.316;2023-03-01T10:35:56;3.38;;;2.78;;
29196;SDS011;62796;42.654;23.316;2023-03-01T10:38:21;4.95;;;2.88;;
29196;SDS011;62796;42.654;23.316;2023-03-01T10:43:22;6.15;;;3.20;;
29196;SDS011;62796;42.654;23.316;2023-03-01T10:45:48;7.03;;;3.42;;
29196;SDS011;62796;42.654;23.316;2023-03-01T10:50:57;8.20;;;5.75;;
29196;SDS011;62796;42.654;23.316;2023-03-01T10:56:08;4.93;;;2.67;;
29196;SDS011;62796;42.654;23.316;2023-03-01T10:58:39;7.82;;;3.40;;
29196;SDS011;62796;42.654;23.316;2023-03-01T11:03:54;7.75;;;3.88;;
29196;SDS011;62796;42.654;23.316;2023-03-01T11:06:30;4.97;;;3.40;;
29196;SDS011;62796;42.654;23.316;2023-03-01T11:08:56;5.60;;;3.65;;
29196;SDS011;62796;42.654;23.316;2023-03-01T11:11:23;3.72;;;2.88;;
29196;SDS011;62796;42.654;23.316;2023-03-01T11:14:03;4.18;;;3.15;;
29196;SDS011;62796;42.654;23.316;2023-03-01T11:16:37;5.03;;;3.80;;
29196;SDS011;62796;42.654;23.316;2023-03-01T11:21:37;5.50;;;3.72;;
29196;SDS011;62796;42.654;23.316;2023-03-01T11:24:09;5.88;;;4.05;;
29196;SDS011;62796;42.654;23.316;2023-03-01T11:26:38;4.55;;;3.60;;
29196;SDS011;62796;42.654;23.316;2023-03-01T11:29:18;5.80;;;4.13;;
29196;SDS011;62796;42.654;23.316;2023-03-01T11:31:53;4.88;;;3.35;;
29196;SDS011;62796;42.654;23.316;2023-03-01T11:34:57;12.05;;;7.35;;
29196;SDS011;62796;42.654;23.316;2023-03-01T11:37:21;5.40;;;3.53;;
29196;SDS011;62796;42.654;23.316;2023-03-01T11:40:00;3.67;;;3.25;;
29196;SDS011;62796;42.654;23.316;2023-03-01T11:47:53;4.25;;;3.67;;
29196;SDS011;62796;42.654;23.316;2023-03-01T11:50:32;4.25;;;3.67;;
29196;SDS011;62796;42.654;23.316;2023-03-01T12:06:51;7.30;;;4.75;;
29196;SDS011;62796;42.654;23.316;2023-03-01T12:40:58;6.65;;;4.85;;
29196;SDS011;62796;42.654;23.316;2023-03-01T12:48:51;4.68;;;3.83;;
29196;SDS011;62796;42.654;23.316;2023-03-01T12:51:23;4.22;;;3.83;;
29196;SDS011;62796;42.654;23.316;2023-03-01T12:53:52;7.00;;;5.35;;
29196;SDS011;62796;42.654;23.316;2023-03-01T12:56:23;6.80;;;4.40;;
29196;SDS011;62796;42.654;23.316;2023-03-01T12:59:08;5.60;;;4.45;;
29196;SDS011;62796;42.654;23.316;2023-03-01T13:10:39;6.78;;;4.13;;
29196;SDS011;62796;42.654;23.316;2023-03-01T13:13:19;5.63;;;4.43;;
29196;SDS011;62796;42.654;23.316;2023-03-01T13:15:49;6.90;;;4.32;;
29196;SDS011;62796;42.654;23.316;2023-03-01T13:23:13;4.32;;;3.80;;
29196;SDS011;62796;42.654;23.316;2023-03-01T13:34:46;9.23;;;6.35;;
29196;SDS011;62796;42.654;23.316;2023-03-01T13:37:10;5.15;;;4.60;;
29196;SDS011;62796;42.654;23.316;2023-03-01T13:39:44;5.10;;;4.53;;
29196;SDS011;62796;42.654;23.316;2023-03-01T13:42:32;5.20;;;4.32;;
29196;SDS011;62796;42.654;23.316;2023-03-01T13:44:58;4.75;;;4.25;;
29196;SDS011;62796;42.654;23.316;2023-03-01T13:47:25;4.72;;;4.05;;
29196;SDS011;62796;42.654;23.316;2023-03-01T13:50:00;5.35;;;4.30;;
29196;SDS011;62796;42.654;23.316;2023-03-01T13:55:27;5.88;;;4.50;;
29196;SDS011;62796;42.654;23.316;2023-03-01T13:58:02;5.78;;;4.50;;
29196;SDS011;62796;42.654;23.316;2023-03-01T14:00:39;5.65;;;4.65;;
29196;SDS011;62796;42.654;23.316;2023-03-01T14:03:09;5.68;;;4.57;;
29196;SDS011;62796;42.654;23.316;2023-03-01T14:05:35;6.82;;;4.40;;
29196;SDS011;62796;42.654;23.316;2023-03-01T14:08:01;7.50;;;4.20;;
29196;SDS011;62796;42.654;23.316;2023-03-01T14:10:43;6.60;;;4.10;;
29196;SDS011;62796;42.654;23.316;2023-03-01T14:21:29;5.63;;;4.22;;
29196;SDS011;62796;42.654;23.316;2023-03-01T14:23:55;6.55;;;4.50;;
29196;SDS011;62796;42.654;23.316;2023-03-01T14:26:22;7.43;;;4.35;;
29196;SDS011;62796;42.654;23.316;2023-03-01T14:28:49;14.30;;;4.75;;
29196;SDS011;62796;42.654;23.316;2023-03-01T14:34:01;6.63;;;4.43;;
29196;SDS011;62796;42.654;23.316;2023-03-01T14:36:27;6.18;;;3.97;;
29196;SDS011;62796;42.654;23.316;2023-03-01T14:38:56;7.55;;;4.60;;
29196;SDS011;62796;42.654;23.316;2023-03-01T14:41:25;6.63;;;4.15;;
29196;SDS011;62796;42.654;23.316;2023-03-01T14:49:11;7.22;;;4.40;;
29196;SDS011;62796;42.654;23.316;2023-03-01T14:51:44;5.68;;;4.20;;
29196;SDS011;62796;42.654;23.316;2023-03-01T14:57:21;6.32;;;4.50;;
29196;SDS011;62796;42.654;23.316;2023-03-01T14:59:49;8.40;;;5.28;;
29196;SDS011;62796;42.654;23.316;2023-03-01T15:02:21;12.15;;;4.88;;
29196;SDS011;62796;42.654;23.316;2023-03-01T15:04:50;8.50;;;3.97;;
29196;SDS011;62796;42.654;23.316;2023-03-01T15:07:18;6.85;;;3.92;;
29196;SDS011;62796;42.654;23.316;2023-03-01T15:09:44;7.93;;;3.90;;
29196;SDS011;62796;42.654;23.316;2023-03-01T15:14:55;9.73;;;5.10;;
29196;SDS011;62796;42.654;23.316;2023-03-01T15:17:31;9.18;;;5.32;;
29196;SDS011;62796;42.654;23.316;2023-03-01T15:19:59;10.15;;;5.18;;
29196;SDS011;62796;42.654;23.316;2023-03-01T15:22:27;7.10;;;4.90;;
29196;SDS011;62796;42.654;23.316;2023-03-01T15:24:53;9.52;;;4.40;;
29196;SDS011;62796;42.654;23.316;2023-03-01T15:27:20;7.25;;;4.70;;
29196;SDS011;62796;42.654;23.316;2023-03-01T15:30:21;7.63;;;4.80;;
29196;SDS011;62796;42.654;23.316;2023-03-01T15:35:51;6.57;;;4.93;;
29196;SDS011;62796;42.654;23.316;2023-03-01T15:43:50;7.53;;;5.30;;
29196;SDS011;62796;42.654;23.316;2023-03-01T15:48:53;8.95;;;5.40;;
29196;SDS011;62796;42.654;23.316;2023-03-01T15:51:31;11.30;;;5.28;;
29196;SDS011;62796;42.654;23.316;2023-03-01T15:54:00;9.80;;;5.22;;
29196;SDS011;62796;42.654;23.316;2023-03-01T15:56:28;7.80;;;5.00;;
29196;SDS011;62796;42.654;23.316;2023-03-01T15:58:57;7.85;;;4.72;;
29196;SDS011;62796;42.654;23.316;2023-03-01T16:01:27;8.65;;;4.78;;
29196;SDS011;62796;42.654;23.316;2023-03-01T16:03:53;8.55;;;4.93;;
29196;SDS011;62796;42.654;23.316;2023-03-01T16:06:19;9.02;;;5.10;;
29196;SDS011;62796;42.654;23.316;2023-03-01T16:08:44;7.32;;;4.90;;
29196;SDS011;62796;42.654;23.316;2023-03-01T16:11:13;7.75;;;4.50;;
29196;SDS011;62796;42.654;23.316;2023-03-01T16:13:42;7.88;;;4.85;;
29196;SDS011;62796;42.654;23.316;2023-03-01T16:16:11;8.45;;;5.22;;
29196;SDS011;62796;42.654;23.316;2023-03-01T16:18:40;7.35;;;4.78;;
29196;SDS011;62796;42.654;23.316;2023-03-01T16:21:05;7.32;;;4.85;;
29196;SDS011;62796;42.654;23.316;2023-03-01T16:23:31;7.30;;;5.00;;
29196;SDS011;62796;42.654;23.316;2023-03-01T16:25:59;8.07;;;4.18;;
29196;SDS011;62796;42.654;23.316;2023-03-01T16:28:25;9.25;;;4.65;;
29196;SDS011;62796;42.654;23.316;2023-03-01T16:30:51;7.38;;;4.15;;
29196;SDS011;62796;42.654;23.316;2023-03-01T16:33:16;6.95;;;4.35;;
29196;SDS011;62796;42.654;23.316;2023-03-01T16:35:42;7.30;;;4.75;;
29196;SDS011;62796;42.654;23.316;2023-03-01T16:38:09;7.68;;;5.20;;
29196;SDS011;62796;42.654;23.316;2023-03-01T16:40:35;7.07;;;4.32;;
29196;SDS011;62796;42.654;23.316;2023-03-01T16:43:00;9.43;;;5.90;;
29196;SDS011;62796;42.654;23.316;2023-03-01T16:45:26;8.27;;;4.45;;
29196;SDS011;62796;42.654;23.316;2023-03-01T16:47:53;10.43;;;5.15;;
29196;SDS011;62796;42.654;23.316;2023-03-01T16:50:19;7.10;;;4.68;;
29196;SDS011;62796;42.654;23.316;2023-03-01T16:52:44;7.90;;;4.88;;
29196;SDS011;62796;42.654;23.316;2023-03-01T16:55:10;7.82;;;4.70;;
29196;SDS011;62796;42.654;23.316;2023-03-01T16:57:38;7.93;;;5.25;;
29196;SDS011;62796;42.654;23.316;2023-03-01T17:00:07;11.10;;;5.53;;
29196;SDS011;62796;42.654;23.316;2023-03-01T17:02:38;7.80;;;4.60;;
29196;SDS011;62796;42.654;23.316;2023-03-01T17:05:06;8.38;;;4.70;;
29196;SDS011;62796;42.654;23.316;2023-03-01T17:07:32;7.03;;;5.05;;
29196;SDS011;62796;42.654;23.316;2023-03-01T17:10:03;11.77;;;4.80;;